createdAt,value
2019-05-22T00:01:24.661Z,59.29
2019-05-22T00:04:12.191Z,59.32
2019-05-22T00:06:43.781Z,59.34
2019-05-22T00:09:21.445Z,59.34
2019-05-22T00:11:49.355Z,59.45
2019-05-22T00:14:16.835Z,59.49
2019-05-22T00:16:46.230Z,59.63
2019-05-22T00:19:14.507Z,59.71
2019-05-22T00:21:41.882Z,59.75
2019-05-22T00:24:10.955Z,59.79
2019-05-22T00:26:39.833Z,59.79
2019-05-22T00:29:07.997Z,59.85
2019-05-22T00:31:35.693Z,59.91
2019-05-22T00:34:03.949Z,60.00
2019-05-22T00:36:32.315Z,60.21
2019-05-22T00:38:59.912Z,60.27
2019-05-22T00:41:33.331Z,60.28
2019-05-22T00:44:00.869Z,60.23
2019-05-22T00:46:43.099Z,60.29
2019-05-22T00:49:12.423Z,60.36
2019-05-22T00:52:00.285Z,60.40
2019-05-22T00:54:49.348Z,60.43
2019-05-22T00:57:34.538Z,60.50
2019-05-22T01:00:15.180Z,60.75
2019-05-22T01:02:43.864Z,60.83
2019-05-22T01:05:12.430Z,60.88
2019-05-22T01:07:39.960Z,60.98
2019-05-22T01:10:10.340Z,61.04
2019-05-22T01:12:43.675Z,61.12
2019-05-22T01:15:14.874Z,61.28
2019-05-22T01:17:42.355Z,61.35
2019-05-22T01:20:14.437Z,61.46
2019-05-22T01:22:42.082Z,61.44
2019-05-22T01:25:13.181Z,61.70
2019-05-22T01:27:41.549Z,61.85
2019-05-22T01:30:14.864Z,62.11
2019-05-22T01:32:48.702Z,62.16
2019-05-22T01:35:18.607Z,62.14
2019-05-22T01:37:46.879Z,62.13
2019-05-22T01:40:23.203Z,62.19
2019-05-22T01:42:52.938Z,62.31
2019-05-22T01:45:21.757Z,62.25
2019-05-22T01:47:59.116Z,62.34
2019-05-22T01:50:48.327Z,62.36
2019-05-22T01:53:20.053Z,62.54
2019-05-22T01:55:50.709Z,62.61
2019-05-22T01:58:18.970Z,62.69
2019-05-22T02:00:47.135Z,62.81
2019-05-22T02:03:14.243Z,62.83
2019-05-22T02:05:42.006Z,62.91
2019-05-22T02:08:11.083Z,63.11
2019-05-22T02:10:41.467Z,63.14
2019-05-22T02:13:12.925Z,63.24
2019-05-22T02:15:43.095Z,63.25
2019-05-22T02:18:13.546Z,63.35
2019-05-22T02:20:41.492Z,63.52
2019-05-22T02:23:08.792Z,63.65
2019-05-22T02:25:37.147Z,63.74
2019-05-22T02:28:05.368Z,63.85
2019-05-22T02:30:35.490Z,64.00
2019-05-22T02:33:04.093Z,64.07
2019-05-22T02:35:31.317Z,64.15
2019-05-22T02:37:58.599Z,64.25
2019-05-22T02:40:31.537Z,64.35
2019-05-22T02:42:59.362Z,64.40
2019-05-22T02:45:26.776Z,64.43
2019-05-22T02:47:55.156Z,64.43
2019-05-22T02:50:23.134Z,64.52
2019-05-22T02:52:51.016Z,64.55
2019-05-22T02:55:18.290Z,64.59
2019-05-22T02:57:45.859Z,64.66
2019-05-22T03:00:15.377Z,64.62
2019-05-22T03:02:50.349Z,64.71
2019-05-22T03:05:20.152Z,64.77
2019-05-22T03:07:47.650Z,64.79
2019-05-22T03:10:17.856Z,64.83
2019-05-22T03:12:45.329Z,64.98
2019-05-22T03:15:15.487Z,64.93
2019-05-22T03:17:44.343Z,65.01
2019-05-22T03:20:15.621Z,65.04
2019-05-22T03:22:56.503Z,65.16
2019-05-22T03:25:26.593Z,65.17
2019-05-22T03:27:54.556Z,65.19
2019-05-22T03:30:26.085Z,65.25
2019-05-22T03:32:54.649Z,65.24
2019-05-22T03:35:23.153Z,65.33
2019-05-22T03:37:52.578Z,65.46
2019-05-22T03:40:21.044Z,65.48
2019-05-22T03:42:50.325Z,65.55
2019-05-22T03:45:18.508Z,65.59
2019-05-22T03:47:45.983Z,65.57
2019-05-22T03:50:14.664Z,65.56
2019-05-22T03:52:41.776Z,65.59
2019-05-22T03:55:11.206Z,65.67
2019-05-22T03:57:38.695Z,65.67
2019-05-22T04:00:07.944Z,65.79
2019-05-22T04:02:36.422Z,65.82
2019-05-22T04:05:06.627Z,65.82
2019-05-22T04:07:34.900Z,65.78
2019-05-22T04:10:02.476Z,65.73
2019-05-22T04:12:30.376Z,65.68
2019-05-22T04:14:57.609Z,65.71
2019-05-22T04:17:25.017Z,65.73
2019-05-22T04:19:52.883Z,65.73
2019-05-22T04:22:20.052Z,65.71
2019-05-22T04:24:47.852Z,65.72
2019-05-22T04:27:16.140Z,65.67
2019-05-22T04:29:43.828Z,65.62
2019-05-22T04:32:20.001Z,65.54
2019-05-22T04:34:47.871Z,65.58
2019-05-22T04:37:15.648Z,65.55
2019-05-22T04:39:45.496Z,65.55
2019-05-22T04:42:13.368Z,65.63
2019-05-22T04:44:59.550Z,65.60
2019-05-22T04:47:26.610Z,65.57
2019-05-22T04:50:06.836Z,65.41
2019-05-22T04:52:23.872Z,65.32
2019-05-22T04:54:52.583Z,65.35
2019-05-22T04:57:20.055Z,65.19
2019-05-22T04:59:47.442Z,65.15
2019-05-22T05:02:14.534Z,65.10
2019-05-22T05:04:42.020Z,64.97
2019-05-22T05:07:10.347Z,64.81
2019-05-22T05:09:37.420Z,64.75
2019-05-22T05:12:05.452Z,64.74
2019-05-22T05:14:33.180Z,64.65
2019-05-22T05:17:01.010Z,64.59
2019-05-22T05:19:28.075Z,64.45
2019-05-22T05:21:55.155Z,64.33
2019-05-22T05:24:22.985Z,64.29
2019-05-22T05:26:52.278Z,64.16
2019-05-22T05:29:27.974Z,64.10
2019-05-22T05:31:56.332Z,64.09
2019-05-22T05:34:45.245Z,63.91
2019-05-22T05:37:12.259Z,63.77
2019-05-22T05:40:24.199Z,63.63
2019-05-22T05:42:52.067Z,63.63
2019-05-22T05:45:21.264Z,63.45
2019-05-22T05:47:49.144Z,63.36
2019-05-22T05:50:17.522Z,63.33
2019-05-22T05:52:46.601Z,63.13
2019-05-22T05:55:15.302Z,62.99
2019-05-22T05:58:24.564Z,62.66
2019-05-22T06:00:55.777Z,62.45
2019-05-22T06:03:39.861Z,62.19
2019-05-22T06:07:00.809Z,62.04
2019-05-22T06:09:28.996Z,61.91
2019-05-22T06:11:56.873Z,61.67
2019-05-22T06:14:26.668Z,61.59
2019-05-22T06:17:44.463Z,61.45
2019-05-22T06:20:16.314Z,61.02
2019-05-22T06:23:04.976Z,60.49
2019-05-22T06:25:33.451Z,60.30
2019-05-22T06:28:02.720Z,60.03
2019-05-22T06:30:40.555Z,59.91
2019-05-22T06:33:42.472Z,59.69
2019-05-22T06:36:13.754Z,59.56
2019-05-22T06:39:02.699Z,59.43
2019-05-22T06:41:34.419Z,59.28
2019-05-22T06:44:36.836Z,59.00
2019-05-22T06:47:07.649Z,58.77
2019-05-22T06:49:50.716Z,58.51
2019-05-22T06:52:18.755Z,58.47
2019-05-22T06:54:46.501Z,58.41
2019-05-22T06:57:27.807Z,58.09
2019-05-22T07:00:13.887Z,57.76
2019-05-22T07:02:34.123Z,57.81
2019-05-22T07:05:04.356Z,57.73
2019-05-22T07:07:31.630Z,57.47
2019-05-22T07:09:59.719Z,57.20
2019-05-22T07:12:31.905Z,57.03
2019-05-22T07:15:35.792Z,56.59
2019-05-22T07:18:04.911Z,56.45
2019-05-22T07:20:35.031Z,56.30
2019-05-22T07:23:05.133Z,55.92
2019-05-22T07:25:34.637Z,55.72
2019-05-22T07:28:02.749Z,55.65
2019-05-22T07:30:30.337Z,55.21
2019-05-22T07:32:57.422Z,55.02
2019-05-22T07:35:43.757Z,54.85
2019-05-22T07:37:55.374Z,54.56
2019-05-22T07:40:22.775Z,54.41
2019-05-22T07:42:50.586Z,54.25
2019-05-22T07:45:18.763Z,53.91
2019-05-22T07:47:47.239Z,53.68
2019-05-22T07:50:15.194Z,53.36
2019-05-22T07:52:42.516Z,53.45
2019-05-22T07:55:10.633Z,53.15
2019-05-22T07:57:41.769Z,52.90
2019-05-22T08:00:10.856Z,52.88
2019-05-22T08:02:42.633Z,52.66
2019-05-22T08:05:13.122Z,52.53
2019-05-22T08:07:41.439Z,52.43
2019-05-22T08:10:11.199Z,52.29
2019-05-22T08:12:39.562Z,51.83
2019-05-22T08:15:07.530Z,51.80
2019-05-22T08:17:35.923Z,51.74
2019-05-22T08:20:03.555Z,51.33
2019-05-22T08:22:30.618Z,51.14
2019-05-22T08:24:58.054Z,51.25
2019-05-22T08:27:25.916Z,51.25
2019-05-22T08:29:56.816Z,50.79
2019-05-22T08:32:26.543Z,50.63
2019-05-22T08:34:53.738Z,50.52
2019-05-22T08:37:26.940Z,50.87
2019-05-22T08:39:54.224Z,50.52
2019-05-22T08:42:22.631Z,50.39
2019-05-22T08:44:53.503Z,50.63
2019-05-22T08:47:21.000Z,50.20
2019-05-22T08:49:49.200Z,50.12
2019-05-22T08:52:23.837Z,49.80
2019-05-22T08:54:47.595Z,49.69
2019-05-22T08:57:18.699Z,49.89
2019-05-22T08:59:48.492Z,49.73
2019-05-22T09:02:15.883Z,49.59
2019-05-22T09:04:42.954Z,48.86
2019-05-22T09:07:10.338Z,48.71
2019-05-22T09:09:37.716Z,48.95
2019-05-22T09:12:07.213Z,48.49
2019-05-22T09:14:34.591Z,47.83
2019-05-22T09:17:02.817Z,47.62
2019-05-22T09:19:30.199Z,47.62
2019-05-22T09:22:00.451Z,47.65
2019-05-22T09:24:28.324Z,47.32
2019-05-22T09:26:55.452Z,47.08
2019-05-22T09:29:22.619Z,47.13
2019-05-22T09:31:49.730Z,46.78
2019-05-22T09:34:16.923Z,46.85
2019-05-22T09:36:46.042Z,46.53
2019-05-22T09:39:13.218Z,46.37
2019-05-22T09:41:40.311Z,46.38
2019-05-22T09:44:08.123Z,45.85
2019-05-22T09:46:35.214Z,45.71
2019-05-22T09:49:03.724Z,44.67
2019-05-22T09:51:33.654Z,44.84
2019-05-22T09:54:02.867Z,44.05
2019-05-22T09:56:30.155Z,44.10
2019-05-22T09:58:57.370Z,43.92
2019-05-22T10:01:24.666Z,43.75
2019-05-22T10:03:52.178Z,41.76
2019-05-22T10:06:21.734Z,42.07
2019-05-22T10:08:49.003Z,42.25
2019-05-22T10:11:17.379Z,42.06
2019-05-22T10:13:45.080Z,41.52
2019-05-22T10:16:12.152Z,40.97
2019-05-22T10:18:39.234Z,40.55
2019-05-22T10:21:06.686Z,40.49
2019-05-22T10:23:34.187Z,40.18
2019-05-22T10:26:03.883Z,39.35
2019-05-22T10:28:31.572Z,39.35
2019-05-22T10:30:59.633Z,39.05
2019-05-22T10:33:27.137Z,38.81
2019-05-22T10:35:54.337Z,38.66
2019-05-22T10:38:21.712Z,38.38
2019-05-22T10:40:48.788Z,38.04
2019-05-22T10:43:16.789Z,37.28
2019-05-22T10:45:45.130Z,36.96
2019-05-22T10:48:12.204Z,36.19
2019-05-22T10:50:39.578Z,36.35
2019-05-22T10:53:07.348Z,36.99
2019-05-22T10:55:34.511Z,36.83
2019-05-22T10:58:01.892Z,37.00
2019-05-22T11:00:29.019Z,37.10
2019-05-22T11:02:58.724Z,36.92
2019-05-22T11:05:26.103Z,36.88
2019-05-22T11:07:54.037Z,36.44
2019-05-22T11:10:23.685Z,36.09
2019-05-22T11:12:51.525Z,35.86
2019-05-22T11:15:19.803Z,35.58
2019-05-22T11:17:47.213Z,35.62
2019-05-22T11:20:15.017Z,35.47
2019-05-22T11:22:43.519Z,34.66
2019-05-22T11:25:13.095Z,35.29
2019-05-22T11:27:40.771Z,35.61
2019-05-22T11:30:09.938Z,35.40
2019-05-22T11:32:37.017Z,35.36
2019-05-22T11:35:05.834Z,35.62
2019-05-22T11:37:33.005Z,33.91
2019-05-22T11:40:00.349Z,34.23
2019-05-22T11:42:27.867Z,34.12
2019-05-22T11:44:55.661Z,34.74
2019-05-22T11:47:23.333Z,34.60
2019-05-22T11:49:50.611Z,34.14
2019-05-22T11:52:18.715Z,34.65
2019-05-22T11:54:45.885Z,34.80
2019-05-22T11:57:13.695Z,34.55
2019-05-22T11:59:41.281Z,34.24
2019-05-22T12:02:11.017Z,34.62
2019-05-22T12:04:48.007Z,34.81
2019-05-22T12:07:10.023Z,34.74
2019-05-22T12:09:37.243Z,34.53
2019-05-22T12:12:04.489Z,34.92
2019-05-22T12:14:32.138Z,34.87
2019-05-22T12:16:59.689Z,34.75
2019-05-22T12:19:27.672Z,34.92
2019-05-22T12:21:55.188Z,35.08
2019-05-22T12:24:28.416Z,35.24
2019-05-22T12:26:52.178Z,34.97
2019-05-22T12:29:19.712Z,35.29
2019-05-22T12:31:47.233Z,35.38
2019-05-22T12:34:14.515Z,35.38
2019-05-22T12:36:42.395Z,35.23
2019-05-22T12:39:09.988Z,35.37
2019-05-22T12:41:37.858Z,35.47
2019-05-22T12:44:05.655Z,35.69
2019-05-22T12:46:35.467Z,34.97
2019-05-22T12:49:08.611Z,35.29
2019-05-22T12:51:33.633Z,36.16
2019-05-22T12:54:02.807Z,36.08
2019-05-22T12:56:30.894Z,35.93
2019-05-22T12:58:58.391Z,36.05
2019-05-22T13:01:28.602Z,35.84
2019-05-22T13:03:57.212Z,35.57
2019-05-22T13:06:24.401Z,35.34
2019-05-22T13:09:22.819Z,35.47
2019-05-22T13:11:50.111Z,35.47
2019-05-22T13:14:17.235Z,35.36
2019-05-22T13:16:49.064Z,35.40
2019-05-22T13:19:16.030Z,35.48
2019-05-22T13:21:45.504Z,35.60
2019-05-22T13:24:18.288Z,35.69
2019-05-22T13:26:46.658Z,35.75
2019-05-22T13:29:14.679Z,35.71
2019-05-22T13:31:44.401Z,35.40
2019-05-22T13:34:15.081Z,35.17
2019-05-22T13:36:42.162Z,35.01
2019-05-22T13:39:11.183Z,34.87
2019-05-22T13:41:39.327Z,34.29
2019-05-22T13:44:06.746Z,34.06
2019-05-22T13:46:34.656Z,34.13
2019-05-22T13:49:03.881Z,33.94
2019-05-22T13:51:31.160Z,33.79
2019-05-22T13:53:59.447Z,33.95
2019-05-22T13:56:27.527Z,33.39
2019-05-22T13:58:55.205Z,33.14
2019-05-22T14:01:23.905Z,32.94
2019-05-22T14:03:52.990Z,32.70
2019-05-22T14:06:20.170Z,32.11
2019-05-22T14:08:47.585Z,31.82
2019-05-22T14:11:15.390Z,31.83
2019-05-22T14:13:44.079Z,32.19
2019-05-22T14:16:11.528Z,32.35
2019-05-22T14:18:38.619Z,32.49
2019-05-22T14:21:05.710Z,32.67
2019-05-22T14:23:32.791Z,32.57
2019-05-22T14:26:00.059Z,32.90
2019-05-22T14:28:28.031Z,32.93
2019-05-22T14:30:56.033Z,32.79
2019-05-22T14:33:23.694Z,32.89
2019-05-22T14:35:52.875Z,32.82
2019-05-22T14:38:20.449Z,32.72
2019-05-22T14:40:47.720Z,32.62
2019-05-22T14:43:15.107Z,32.88
2019-05-22T14:45:42.475Z,32.90
2019-05-22T14:48:10.777Z,33.42
2019-05-22T14:50:37.871Z,33.34
2019-05-22T14:53:05.368Z,33.17
2019-05-22T14:55:34.053Z,32.84
2019-05-22T14:58:02.144Z,32.61
2019-05-22T15:00:30.625Z,32.50
2019-05-22T15:02:59.456Z,32.44
2019-05-22T15:05:27.611Z,32.44
2019-05-22T15:07:55.107Z,32.50
2019-05-22T15:10:23.708Z,32.33
2019-05-22T15:12:50.916Z,32.21
2019-05-22T15:15:22.125Z,32.44
2019-05-22T15:17:49.393Z,32.64
2019-05-22T15:20:20.624Z,32.73
2019-05-22T15:22:47.712Z,32.79
2019-05-22T15:25:15.596Z,32.84
2019-05-22T15:27:43.776Z,32.87
2019-05-22T15:30:12.275Z,32.45
2019-05-22T15:32:39.645Z,32.13
2019-05-22T15:35:08.817Z,32.02
2019-05-22T15:37:36.809Z,31.92
2019-05-22T15:40:04.983Z,32.02
2019-05-22T15:42:40.123Z,31.79
2019-05-22T15:45:10.293Z,31.84
2019-05-22T15:47:53.134Z,31.91
2019-05-22T15:50:10.328Z,31.99
2019-05-22T15:52:40.713Z,31.95
2019-05-22T15:55:10.717Z,32.02
2019-05-22T15:57:38.706Z,31.81
2019-05-22T16:00:09.293Z,31.74
2019-05-22T16:02:36.979Z,31.70
2019-05-22T16:05:05.972Z,31.71
2019-05-22T16:07:33.460Z,31.71
2019-05-22T16:10:00.945Z,31.65
2019-05-22T16:12:28.023Z,31.64
2019-05-22T16:14:57.543Z,31.43
2019-05-22T16:17:25.513Z,31.69
2019-05-22T16:19:53.391Z,31.81
2019-05-22T16:22:24.555Z,31.82
2019-05-22T16:24:51.632Z,31.82
2019-05-22T16:27:19.308Z,31.83
2019-05-22T16:29:46.911Z,31.66
2019-05-22T16:32:17.106Z,31.55
2019-05-22T16:34:44.591Z,31.86
2019-05-22T16:37:12.708Z,31.73
2019-05-22T16:39:41.116Z,31.80
2019-05-22T16:42:09.239Z,31.62
2019-05-22T16:44:36.814Z,31.35
2019-05-22T16:47:06.111Z,31.27
2019-05-22T16:49:35.106Z,31.21
2019-05-22T16:52:06.268Z,31.24
2019-05-22T16:54:34.657Z,31.31
2019-05-22T16:57:02.056Z,31.48
2019-05-22T16:59:29.277Z,31.46
2019-05-22T17:02:00.312Z,31.21
2019-05-22T17:04:26.991Z,31.13
2019-05-22T17:06:54.772Z,31.09
2019-05-22T17:09:22.542Z,31.17
2019-05-22T17:11:50.819Z,31.04
2019-05-22T17:14:20.417Z,30.75
2019-05-22T17:16:48.732Z,30.87
2019-05-22T17:19:27.258Z,30.77
2019-05-22T17:21:49.140Z,31.04
2019-05-22T17:24:17.250Z,31.19
2019-05-22T17:26:45.615Z,31.07
2019-05-22T17:29:13.997Z,31.02
2019-05-22T17:31:42.488Z,30.71
2019-05-22T17:34:27.589Z,31.05
2019-05-22T17:36:56.618Z,30.95
2019-05-22T17:39:27.205Z,31.21
2019-05-22T17:41:56.533Z,31.34
2019-05-22T17:44:24.731Z,31.31
2019-05-22T17:46:52.395Z,31.51
2019-05-22T17:49:20.322Z,31.67
2019-05-22T17:51:48.019Z,31.85
2019-05-22T17:54:15.422Z,32.11
2019-05-22T17:56:43.428Z,32.12
2019-05-22T17:59:10.920Z,31.80
2019-05-22T18:01:38.141Z,31.95
2019-05-22T18:04:05.263Z,32.10
2019-05-22T18:06:32.464Z,32.32
2019-05-22T18:08:59.569Z,32.51
2019-05-22T18:11:26.640Z,32.61
2019-05-22T18:13:59.280Z,32.83
2019-05-22T18:16:26.457Z,33.02
2019-05-22T18:18:54.747Z,33.25
2019-05-22T18:21:22.380Z,33.49
2019-05-22T18:23:49.859Z,33.82
2019-05-22T18:26:17.357Z,34.38
2019-05-22T18:28:44.443Z,34.64
2019-05-22T18:31:11.529Z,34.77
2019-05-22T18:33:38.615Z,35.20
2019-05-22T18:36:05.959Z,35.59
2019-05-22T18:38:33.026Z,35.81
2019-05-22T18:41:00.213Z,35.87
2019-05-22T18:43:27.287Z,36.06
2019-05-22T18:45:54.941Z,36.17
2019-05-22T18:48:22.027Z,36.57
2019-05-22T18:50:49.787Z,36.75
2019-05-22T18:53:17.514Z,36.95
2019-05-22T18:55:49.088Z,37.05
2019-05-22T18:58:16.282Z,37.28
2019-05-22T19:00:43.360Z,37.16
2019-05-22T19:03:10.732Z,37.16
2019-05-22T19:05:38.394Z,37.45
2019-05-22T19:08:05.787Z,37.82
2019-05-22T19:10:33.270Z,37.95
2019-05-22T19:13:00.607Z,38.31
2019-05-22T19:15:27.945Z,38.33
2019-05-22T19:17:55.279Z,38.38
2019-05-22T19:20:24.282Z,38.67
2019-05-22T19:23:00.458Z,38.82
2019-05-22T19:25:20.674Z,38.93
2019-05-22T19:27:49.660Z,39.19
2019-05-22T19:30:18.832Z,39.47
2019-05-22T19:32:47.337Z,39.55
2019-05-22T19:35:14.574Z,39.68
2019-05-22T19:37:42.397Z,39.84
2019-05-22T19:40:11.724Z,40.12
2019-05-22T19:42:41.016Z,40.36
2019-05-22T19:45:12.154Z,40.49
2019-05-22T19:47:45.316Z,40.66
2019-05-22T19:50:22.724Z,40.84
2019-05-22T19:52:43.710Z,41.11
2019-05-22T19:55:11.914Z,41.42
2019-05-22T19:57:40.257Z,41.54
2019-05-22T20:00:08.448Z,41.66
2019-05-22T20:02:36.324Z,41.92
2019-05-22T20:05:04.425Z,41.98
2019-05-22T20:07:32.276Z,42.23
2019-05-22T20:10:00.574Z,42.28
2019-05-22T20:12:27.658Z,42.35
2019-05-22T20:14:54.772Z,42.56
2019-05-22T20:17:21.856Z,42.78
2019-05-22T20:19:49.427Z,43.04
2019-05-22T20:22:17.313Z,43.19
2019-05-22T20:24:44.467Z,43.45
2019-05-22T20:27:11.647Z,43.51
2019-05-22T20:29:39.348Z,43.61
2019-05-22T20:32:08.547Z,44.01
2019-05-22T20:34:36.027Z,44.25
2019-05-22T20:37:03.119Z,44.18
2019-05-22T20:39:31.200Z,44.54
2019-05-22T20:41:58.685Z,44.56
2019-05-22T20:44:25.886Z,44.72
2019-05-22T20:46:53.512Z,44.82
2019-05-22T20:49:39.600Z,44.91
2019-05-22T20:52:10.773Z,45.07
2019-05-22T20:54:37.736Z,45.29
2019-05-22T20:57:05.122Z,45.61
2019-05-22T20:59:33.292Z,45.90
2019-05-22T21:02:00.587Z,46.08
2019-05-22T21:04:29.567Z,46.04
2019-05-22T21:07:01.153Z,46.18
2019-05-22T21:09:29.037Z,46.31
2019-05-22T21:11:58.615Z,46.43
2019-05-22T21:14:25.915Z,46.67
2019-05-22T21:16:53.491Z,46.83
2019-05-22T21:19:23.706Z,46.88
2019-05-22T21:21:51.580Z,47.09
2019-05-22T21:24:18.769Z,47.45
2019-05-22T21:26:46.350Z,47.86
2019-05-22T21:29:13.726Z,48.17
2019-05-22T21:31:40.803Z,48.30
2019-05-22T21:34:08.773Z,48.41
2019-05-22T21:36:36.497Z,48.40
2019-05-22T21:39:07.639Z,48.47
2019-05-22T21:41:34.921Z,48.51
2019-05-22T21:44:02.310Z,48.48
2019-05-22T21:46:30.022Z,48.51
2019-05-22T21:48:57.814Z,48.50
2019-05-22T21:51:24.886Z,48.49
2019-05-22T21:53:54.984Z,48.68
2019-05-22T21:56:23.154Z,48.85
2019-05-22T21:58:51.227Z,48.96
2019-05-22T22:01:26.576Z,49.04
2019-05-22T22:04:28.248Z,49.07
2019-05-22T22:06:55.799Z,49.20
2019-05-22T22:09:25.198Z,49.11
2019-05-22T22:11:53.530Z,49.14
2019-05-22T22:14:22.503Z,49.20
2019-05-22T22:16:50.493Z,49.32
2019-05-22T22:19:19.341Z,49.40
2019-05-22T22:21:47.845Z,49.54
2019-05-22T22:24:15.515Z,49.61
2019-05-22T22:26:42.593Z,49.72
2019-05-22T22:29:10.075Z,49.75
2019-05-22T22:31:38.911Z,49.86
2019-05-22T22:34:16.768Z,50.01
2019-05-22T22:36:44.579Z,50.10
2019-05-22T22:39:14.344Z,50.26
2019-05-22T22:41:42.221Z,50.33
2019-05-22T22:44:09.503Z,50.46
2019-05-22T22:46:42.626Z,50.60
2019-05-22T22:49:14.054Z,50.75
2019-05-22T22:51:41.909Z,50.88
2019-05-22T22:54:11.890Z,50.99
2019-05-22T22:56:40.102Z,51.11
2019-05-22T22:59:07.269Z,51.21
2019-05-22T23:01:39.677Z,51.39
2019-05-22T23:04:08.130Z,51.55
2019-05-22T23:06:36.617Z,51.73
2019-05-22T23:09:06.733Z,51.87
2019-05-22T23:11:35.008Z,51.95
2019-05-22T23:14:02.384Z,52.18
2019-05-22T23:16:31.857Z,52.39
2019-05-22T23:19:27.008Z,52.46
2019-05-22T23:21:54.909Z,52.55
2019-05-22T23:24:24.139Z,52.66
2019-05-22T23:26:51.207Z,52.76
2019-05-22T23:29:18.998Z,52.88
2019-05-22T23:31:47.878Z,53.10
2019-05-22T23:34:16.058Z,53.19
2019-05-22T23:36:44.605Z,53.31
2019-05-22T23:39:14.516Z,53.39
2019-05-22T23:41:42.407Z,53.59
2019-05-22T23:44:11.599Z,53.59
2019-05-22T23:46:40.315Z,53.85
2019-05-22T23:49:09.393Z,53.92
2019-05-22T23:51:36.885Z,54.07
2019-05-22T23:54:05.376Z,54.12
2019-05-22T23:56:35.811Z,54.34
2019-05-22T23:59:03.199Z,54.57
